createdAt,value
2022-12-13T00:02:17.240Z,15.27
2022-12-13T00:05:25.770Z,14.73
2022-12-13T00:07:56.125Z,14.68
2022-12-13T00:10:26.542Z,14.75
2022-12-13T00:12:53.700Z,14.70
2022-12-13T00:15:20.683Z,14.90
2022-12-13T00:17:48.582Z,14.68
2022-12-13T00:20:17.441Z,15.32
2022-12-13T00:22:46.722Z,14.20
2022-12-13T00:25:13.817Z,15.45
2022-12-13T00:27:41.785Z,16.10
2022-12-13T00:30:11.064Z,14.65
2022-12-13T00:32:39.064Z,15.35
2022-12-13T00:35:06.547Z,14.23
2022-12-13T00:37:34.427Z,14.48
2022-12-13T00:40:01.375Z,14.63
2022-12-13T00:42:30.397Z,14.52
2022-12-13T00:44:58.226Z,13.27
2022-12-13T00:47:26.745Z,15.00
2022-12-13T00:49:54.825Z,14.93
2022-12-13T00:52:21.931Z,13.52
2022-12-13T00:54:50.089Z,14.27
2022-12-13T00:57:16.992Z,14.38
2022-12-13T00:59:44.886Z,14.07
2022-12-13T01:02:12.830Z,14.55
2022-12-13T01:04:40.745Z,14.15
2022-12-13T01:07:10.825Z,14.07
2022-12-13T01:09:39.534Z,13.82
2022-12-13T01:12:07.604Z,14.18
2022-12-13T01:14:36.052Z,13.77
2022-12-13T01:17:03.510Z,13.38
2022-12-13T01:19:31.205Z,14.10
2022-12-13T01:22:00.592Z,13.02
2022-12-13T01:24:29.330Z,14.48
2022-12-13T01:27:01.187Z,13.63
2022-12-13T01:29:28.893Z,13.82
2022-12-13T01:31:56.056Z,14.63
2022-12-13T01:34:26.519Z,14.40
2022-12-13T01:36:58.685Z,14.75
2022-12-13T01:39:27.014Z,14.18
2022-12-13T01:42:03.602Z,13.60
2022-12-13T01:44:55.633Z,13.48
2022-12-13T01:47:42.131Z,14.13
2022-12-13T01:50:18.738Z,14.80
2022-12-13T01:52:50.419Z,13.10
2022-12-13T01:55:22.076Z,14.68
2022-12-13T01:57:52.942Z,13.93
2022-12-13T02:01:39.603Z,13.93
2022-12-13T02:08:20.636Z,12.65
2022-12-13T02:11:41.332Z,13.73
2022-12-13T02:14:10.083Z,12.93
2022-12-13T02:16:50.332Z,13.30
2022-12-13T02:19:40.961Z,13.07
2022-12-13T02:22:32.397Z,14.38
2022-12-13T02:25:36.871Z,13.23
2022-12-13T02:28:32.866Z,12.50
2022-12-13T02:31:10.728Z,11.65
2022-12-13T02:33:53.245Z,12.48
2022-12-13T02:36:40.014Z,12.82
2022-12-13T02:39:13.265Z,12.98
2022-12-13T02:41:47.875Z,13.30
2022-12-13T02:44:22.711Z,12.55
2022-12-13T02:47:12.673Z,11.98
2022-12-13T02:49:52.029Z,12.93
2022-12-13T02:52:22.901Z,12.55
2022-12-13T02:54:51.009Z,12.63
2022-12-13T02:57:53.409Z,13.43
2022-12-13T03:00:51.902Z,13.23
2022-12-13T03:03:36.765Z,13.07
2022-12-13T03:06:34.168Z,12.73
2022-12-13T03:09:25.439Z,12.32
2022-12-13T03:12:43.116Z,12.60
2022-12-13T03:15:29.473Z,11.65
2022-12-13T03:18:16.146Z,11.80
2022-12-13T03:20:50.775Z,12.57
2022-12-13T03:23:19.475Z,11.70
2022-12-13T03:25:53.141Z,11.60
2022-12-13T03:30:48.345Z,11.15
2022-12-13T03:33:18.963Z,11.30
2022-12-13T03:35:46.364Z,11.80
2022-12-13T03:38:21.943Z,12.30
2022-12-13T03:40:58.853Z,12.05
2022-12-13T03:43:28.070Z,11.15
2022-12-13T03:45:58.789Z,12.02
2022-12-13T03:48:27.087Z,11.20
2022-12-13T03:50:55.728Z,11.13
2022-12-13T03:53:32.473Z,11.40
2022-12-13T03:56:04.046Z,10.93
2022-12-13T03:58:36.156Z,10.93
2022-12-13T04:01:09.676Z,11.18
2022-12-13T04:03:39.354Z,11.02
2022-12-13T04:06:07.204Z,11.45
2022-12-13T04:08:36.350Z,11.27
2022-12-13T04:11:24.016Z,11.73
2022-12-13T04:13:51.403Z,11.35
2022-12-13T04:16:20.829Z,11.98
2022-12-13T04:18:47.979Z,12.02
2022-12-13T04:21:15.297Z,12.52
2022-12-13T04:23:42.194Z,12.10
2022-12-13T04:26:12.230Z,12.00
2022-12-13T04:28:46.950Z,12.43
2022-12-13T04:31:17.383Z,12.35
2022-12-13T04:33:44.413Z,12.52
2022-12-13T04:36:11.289Z,13.38
2022-12-13T04:38:39.301Z,12.90
2022-12-13T04:41:15.535Z,12.50
2022-12-13T04:43:44.992Z,13.45
2022-12-13T04:46:16.211Z,13.38
2022-12-13T04:49:03.857Z,13.70
2022-12-13T04:52:25.327Z,13.00
2022-12-13T04:54:55.264Z,13.68
2022-12-13T04:57:23.654Z,12.35
2022-12-13T04:59:50.651Z,13.15
2022-12-13T05:02:23.683Z,13.15
2022-12-13T05:04:54.634Z,13.70
2022-12-13T05:07:23.607Z,10.32
2022-12-13T05:09:52.274Z,13.90
2022-12-13T05:12:23.620Z,14.10
2022-12-13T05:15:12.128Z,13.82
2022-12-13T05:17:45.509Z,13.52
2022-12-13T05:20:16.731Z,14.20
2022-12-13T05:22:53.094Z,14.15
2022-12-13T05:25:26.813Z,14.75
2022-12-13T05:27:57.069Z,14.70
2022-12-13T05:30:25.504Z,14.07
2022-12-13T05:32:53.416Z,14.82
2022-12-13T05:35:21.681Z,15.55
2022-12-13T05:37:53.232Z,15.20
2022-12-13T05:40:24.168Z,11.53
2022-12-13T05:42:51.148Z,13.77
2022-12-13T05:45:21.292Z,14.07
2022-12-13T05:47:50.471Z,15.35
2022-12-13T05:50:24.714Z,15.48
2022-12-13T05:52:54.655Z,15.60
2022-12-13T05:55:26.243Z,15.13
2022-12-13T05:58:02.402Z,14.60
2022-12-13T06:00:31.022Z,15.68
2022-12-13T06:03:02.473Z,15.15
2022-12-13T06:05:31.923Z,14.85
2022-12-13T06:07:59.549Z,14.55
2022-12-13T06:10:34.841Z,15.60
2022-12-13T06:13:21.885Z,14.98
2022-12-13T06:16:01.478Z,15.60
2022-12-13T06:18:39.030Z,16.15
2022-12-13T06:21:07.557Z,15.95
2022-12-13T06:23:35.923Z,15.82
2022-12-13T06:26:06.966Z,15.98
2022-12-13T06:28:35.954Z,11.60
2022-12-13T06:31:05.196Z,14.88
2022-12-13T06:33:40.970Z,15.60
2022-12-13T06:36:11.105Z,15.95
2022-12-13T06:38:44.989Z,15.35
2022-12-13T06:41:15.352Z,15.65
2022-12-13T06:43:48.306Z,16.67
2022-12-13T06:46:21.300Z,16.92
2022-12-13T06:48:52.505Z,16.48
2022-12-13T06:51:22.790Z,16.02
2022-12-13T06:54:00.817Z,15.50
2022-12-13T06:56:28.877Z,14.25
2022-12-13T06:59:01.747Z,15.73
2022-12-13T07:01:37.139Z,16.00
2022-12-13T07:04:30.329Z,15.88
2022-12-13T07:07:01.066Z,16.10
2022-12-13T07:09:33.292Z,16.67
2022-12-13T07:12:01.176Z,15.90
2022-12-13T07:14:41.123Z,16.75
2022-12-13T07:17:08.412Z,15.93
2022-12-13T07:19:36.125Z,15.70
2022-12-13T07:22:05.887Z,14.38
2022-12-13T07:24:34.829Z,16.52
2022-12-13T07:27:02.892Z,16.63
2022-12-13T07:29:29.840Z,16.42
2022-12-13T07:32:01.852Z,15.98
2022-12-13T07:34:31.029Z,16.08
2022-12-13T07:36:58.025Z,15.52
2022-12-13T07:39:26.387Z,16.35
2022-12-13T07:41:55.615Z,17.00
2022-12-13T07:44:24.734Z,16.13
2022-12-13T07:46:51.879Z,16.25
2022-12-13T07:49:20.450Z,15.60
2022-12-13T07:51:49.240Z,15.95
2022-12-13T07:54:16.367Z,15.70
2022-12-13T07:56:43.752Z,16.35
2022-12-13T07:59:12.003Z,16.30
2022-12-13T08:01:40.222Z,16.08
2022-12-13T08:04:12.343Z,15.52
2022-12-13T08:06:39.743Z,17.40
2022-12-13T08:09:06.916Z,17.35
2022-12-13T08:11:36.991Z,16.65
2022-12-13T08:14:04.240Z,14.80
2022-12-13T08:16:31.306Z,17.40
2022-12-13T08:19:02.013Z,15.68
2022-12-13T08:21:55.187Z,16.80
2022-12-13T08:24:29.111Z,15.05
2022-12-13T08:27:03.136Z,16.38
2022-12-13T08:29:34.245Z,16.77
2022-12-13T08:32:23.147Z,16.27
2022-12-13T08:34:51.557Z,16.60
2022-12-13T08:37:18.991Z,16.95
2022-12-13T08:39:45.929Z,16.92
2022-12-13T08:42:18.754Z,16.00
2022-12-13T08:44:50.809Z,16.60
2022-12-13T08:47:27.047Z,16.67
2022-12-13T08:50:02.981Z,16.80
2022-12-13T08:52:40.589Z,16.20
2022-12-13T08:55:13.662Z,16.48
2022-12-13T08:57:44.083Z,16.17
2022-12-13T09:00:17.131Z,15.23
2022-12-13T09:02:46.373Z,17.20
2022-12-13T09:05:13.628Z,17.35
2022-12-13T09:08:03.001Z,17.23
2022-12-13T09:10:38.405Z,17.42
2022-12-13T09:13:11.912Z,16.52
2022-12-13T09:15:45.978Z,17.35
2022-12-13T09:18:24.913Z,17.00
2022-12-13T09:20:54.128Z,17.80
2022-12-13T09:23:39.513Z,16.75
2022-12-13T09:26:16.175Z,15.98
2022-12-13T09:28:43.176Z,16.15
2022-12-13T09:31:15.586Z,16.63
2022-12-13T09:33:42.641Z,16.38
2022-12-13T09:36:18.781Z,16.30
2022-12-13T09:38:46.827Z,15.82
2022-12-13T09:41:20.398Z,15.95
2022-12-13T09:44:03.439Z,15.40
2022-12-13T09:46:34.794Z,15.02
2022-12-13T09:49:26.744Z,15.82
2022-12-13T09:52:10.931Z,15.63
2022-12-13T09:54:47.812Z,14.48
2022-12-13T09:57:32.443Z,15.63
2022-12-13T10:00:07.470Z,14.68
2022-12-13T10:02:47.344Z,14.57
2022-12-13T10:05:33.740Z,15.70
2022-12-13T10:08:17.159Z,16.02
2022-12-13T10:10:44.513Z,14.98
2022-12-13T10:13:44.461Z,14.82
2022-12-13T10:16:26.608Z,14.00
2022-12-13T10:19:28.982Z,14.05
2022-12-13T10:22:02.258Z,14.77
2022-12-13T10:24:48.462Z,13.20
2022-12-13T10:27:18.522Z,12.77
2022-12-13T10:30:11.860Z,13.73
2022-12-13T10:32:57.960Z,13.52
2022-12-13T10:35:36.268Z,13.02
2022-12-13T10:38:31.930Z,13.75
2022-12-13T10:41:01.493Z,12.07
2022-12-13T10:43:30.520Z,13.18
2022-12-13T10:46:01.476Z,12.10
2022-12-13T10:48:50.327Z,12.25
2022-12-13T10:51:20.282Z,12.27
2022-12-13T10:53:56.330Z,13.02
2022-12-13T10:56:35.847Z,12.45
2022-12-13T10:59:30.786Z,12.88
2022-12-13T11:01:58.184Z,12.48
2022-12-13T11:04:31.646Z,12.70
2022-12-13T11:07:01.910Z,12.40
2022-12-13T11:09:39.114Z,12.65
2022-12-13T11:12:16.497Z,12.48
2022-12-13T11:15:02.809Z,11.88
2022-12-13T11:17:33.499Z,12.95
2022-12-13T11:20:21.399Z,12.35
2022-12-13T11:22:59.211Z,11.55
2022-12-13T11:25:57.089Z,11.57
2022-12-13T11:28:47.179Z,12.15
2022-12-13T11:31:23.588Z,12.48
2022-12-13T11:34:26.164Z,13.52
2022-12-13T11:37:44.398Z,12.00
2022-12-13T11:40:25.568Z,12.07
2022-12-13T11:43:38.602Z,12.50
2022-12-13T11:46:17.522Z,12.02
2022-12-13T11:49:01.392Z,12.38
2022-12-13T11:51:37.844Z,12.45
2022-12-13T11:54:23.881Z,12.00
2022-12-13T11:57:00.438Z,12.35
2022-12-13T11:59:46.412Z,12.00
2022-12-13T12:02:20.261Z,12.48
2022-12-13T12:04:56.663Z,12.77
2022-12-13T12:07:58.506Z,13.23
2022-12-13T12:10:31.712Z,12.90
2022-12-13T12:13:13.975Z,12.55
2022-12-13T12:15:55.188Z,9.57
2022-12-13T12:18:23.051Z,13.55
2022-12-13T12:21:32.798Z,12.50
2022-12-13T12:24:16.132Z,12.98
2022-12-13T12:26:55.435Z,13.30
2022-12-13T12:29:44.876Z,12.85
2022-12-13T12:32:26.734Z,12.18
2022-12-13T12:35:21.046Z,11.93
2022-12-13T12:38:29.422Z,12.15
2022-12-13T12:41:17.223Z,12.52
2022-12-13T12:43:49.309Z,12.02
2022-12-13T12:46:28.436Z,12.40
2022-12-13T12:49:19.741Z,13.18
2022-12-13T12:51:52.981Z,12.82
2022-12-13T12:55:04.436Z,11.57
2022-12-13T12:57:43.705Z,9.07
2022-12-13T13:00:19.361Z,11.93
2022-12-13T13:02:56.132Z,12.55
2022-12-13T13:06:02.136Z,12.10
2022-12-13T13:08:55.365Z,12.50
2022-12-13T13:11:26.170Z,12.98
2022-12-13T13:14:19.906Z,12.70
2022-12-13T13:16:46.899Z,14.57
2022-12-13T13:19:17.768Z,12.10
2022-12-13T13:22:01.887Z,13.07
2022-12-13T13:24:34.670Z,13.48
2022-12-13T13:27:11.739Z,13.75
2022-12-13T13:29:43.260Z,12.90
2022-12-13T13:32:11.944Z,13.25
2022-12-13T13:34:42.493Z,13.63
2022-12-13T13:37:46.298Z,12.57
2022-12-13T13:40:13.208Z,12.87
2022-12-13T13:43:06.741Z,13.15
2022-12-13T13:45:54.131Z,14.15
2022-12-13T13:48:51.231Z,13.05
2022-12-13T13:52:23.796Z,13.02
2022-12-13T13:55:15.516Z,14.10
2022-12-13T13:58:12.512Z,14.35
2022-12-13T14:01:04.794Z,13.98
2022-12-13T14:03:54.052Z,13.75
2022-12-13T14:07:00.996Z,13.93
2022-12-13T14:09:53.508Z,13.35
2022-12-13T14:13:05.201Z,13.93
2022-12-13T14:16:12.141Z,13.65
2022-12-13T14:19:20.488Z,14.68
2022-12-13T14:22:06.242Z,14.27
2022-12-13T14:24:46.490Z,14.77
2022-12-13T14:27:36.514Z,15.65
2022-12-13T14:30:26.691Z,15.15
2022-12-13T14:32:52.897Z,15.23
2022-12-13T14:35:25.364Z,16.95
2022-12-13T14:38:02.863Z,15.60
2022-12-13T14:40:36.197Z,17.45
2022-12-13T14:43:04.004Z,16.25
2022-12-13T14:45:36.543Z,16.05
2022-12-13T14:48:13.980Z,17.35
2022-12-13T14:50:43.874Z,18.60
2022-12-13T14:53:28.922Z,17.98
2022-12-13T14:56:06.175Z,17.85
2022-12-13T14:58:33.127Z,18.15
2022-12-13T15:01:01.403Z,17.85
2022-12-13T15:03:29.964Z,17.88
2022-12-13T15:06:00.921Z,17.90
2022-12-13T15:08:28.522Z,18.30
2022-12-13T15:10:59.565Z,17.08
2022-12-13T15:13:50.605Z,17.38
2022-12-13T15:16:30.887Z,16.55
2022-12-13T15:19:28.987Z,17.02
2022-12-13T15:22:05.547Z,17.73
2022-12-13T15:24:48.499Z,18.90
2022-12-13T15:27:24.410Z,18.25
2022-12-13T15:29:54.630Z,18.27
2022-12-13T15:32:23.430Z,17.90
2022-12-13T15:34:52.472Z,17.70
2022-12-13T15:37:31.268Z,23.20
2022-12-13T15:40:09.412Z,19.40
2022-12-13T15:42:39.393Z,19.25
2022-12-13T15:45:20.574Z,18.02
2022-12-13T15:47:51.058Z,19.77
2022-12-13T15:50:45.441Z,18.95
2022-12-13T15:53:22.206Z,20.83
2022-12-13T15:55:49.205Z,18.92
2022-12-13T15:58:27.944Z,19.55
2022-12-13T16:00:56.150Z,20.05
2022-12-13T16:03:40.317Z,19.95
2022-12-13T16:06:07.828Z,18.75
2022-12-13T16:08:39.248Z,20.27
2022-12-13T16:11:08.505Z,21.55
2022-12-13T16:13:37.719Z,21.50
2022-12-13T16:16:30.294Z,23.02
2022-12-13T16:19:03.100Z,22.38
2022-12-13T16:21:33.708Z,22.42
2022-12-13T16:24:02.628Z,21.83
2022-12-13T16:26:34.646Z,23.35
2022-12-13T16:29:17.330Z,23.77
2022-12-13T16:31:44.228Z,23.13
2022-12-13T16:34:11.633Z,24.55
2022-12-13T16:36:40.174Z,23.90
2022-12-13T16:39:14.224Z,24.05
2022-12-13T16:41:46.691Z,24.15
2022-12-13T16:44:22.003Z,24.45
2022-12-13T16:47:11.875Z,24.98
2022-12-13T16:49:42.584Z,25.25
2022-12-13T16:52:09.543Z,25.08
2022-12-13T16:54:37.951Z,23.42
2022-12-13T16:57:09.604Z,25.08
2022-12-13T16:59:36.593Z,25.10
2022-12-13T17:02:03.538Z,24.52
2022-12-13T17:04:30.536Z,24.75
2022-12-13T17:06:57.450Z,24.90
2022-12-13T17:09:25.304Z,25.58
2022-12-13T17:11:52.952Z,25.33
2022-12-13T17:14:19.929Z,25.20
2022-12-13T17:16:48.490Z,24.25
2022-12-13T17:19:17.307Z,27.20
2022-12-13T17:21:44.189Z,25.73
2022-12-13T17:24:11.474Z,24.67
2022-12-13T17:26:38.365Z,27.48
2022-12-13T17:29:06.255Z,25.65
2022-12-13T17:31:35.825Z,30.92
2022-12-13T17:34:05.178Z,26.90
2022-12-13T17:36:32.291Z,26.98
2022-12-13T17:39:00.219Z,26.23
2022-12-13T17:41:27.201Z,28.65
2022-12-13T17:44:00.193Z,28.52
2022-12-13T17:46:30.845Z,25.33
2022-12-13T17:48:57.876Z,27.77
2022-12-13T17:51:27.392Z,25.52
2022-12-13T17:53:54.409Z,24.50
2022-12-13T17:56:22.108Z,26.92
2022-12-13T17:59:01.330Z,25.05
2022-12-13T18:01:39.500Z,24.73
2022-12-13T18:04:09.681Z,26.17
2022-12-13T18:06:37.758Z,25.77
2022-12-13T18:09:05.204Z,26.00
2022-12-13T18:11:34.060Z,26.02
2022-12-13T18:14:08.303Z,27.98
2022-12-13T18:16:38.300Z,27.02
2022-12-13T18:19:08.889Z,27.30
2022-12-13T18:21:37.489Z,27.02
2022-12-13T18:24:06.154Z,27.10
2022-12-13T18:26:35.452Z,25.27
2022-12-13T18:29:03.534Z,25.50
2022-12-13T18:31:44.427Z,24.83
2022-12-13T18:34:13.083Z,27.00
2022-12-13T18:36:42.343Z,30.33
2022-12-13T18:39:09.331Z,27.45
2022-12-13T18:41:41.904Z,27.35
2022-12-13T18:44:18.101Z,23.25
2022-12-13T18:46:50.008Z,25.13
2022-12-13T18:49:20.138Z,26.17
2022-12-13T18:51:48.680Z,26.08
2022-12-13T18:54:17.731Z,24.92
2022-12-13T18:56:45.179Z,25.10
2022-12-13T18:59:13.553Z,25.33
2022-12-13T19:01:43.540Z,25.00
2022-12-13T19:04:10.923Z,23.48
2022-12-13T19:06:38.945Z,24.05
2022-12-13T19:09:07.166Z,24.65
2022-12-13T19:11:35.307Z,25.48
2022-12-13T19:14:04.096Z,22.90
2022-12-13T19:16:32.280Z,23.90
2022-12-13T19:19:09.586Z,23.70
2022-12-13T19:21:39.928Z,23.90
2022-12-13T19:24:12.345Z,23.73
2022-12-13T19:26:41.811Z,22.88
2022-12-13T19:29:08.695Z,21.65
2022-12-13T19:31:36.725Z,24.35
2022-12-13T19:34:05.670Z,22.85
2022-12-13T19:36:34.768Z,21.63
2022-12-13T19:39:02.214Z,22.20
2022-12-13T19:41:32.157Z,21.85
2022-12-13T19:44:03.880Z,25.17
2022-12-13T19:46:32.411Z,21.43
2022-12-13T19:49:01.578Z,21.40
2022-12-13T19:51:33.143Z,22.63
2022-12-13T19:54:04.363Z,22.20
2022-12-13T19:56:34.432Z,23.50
2022-12-13T19:59:02.650Z,22.48
2022-12-13T20:01:32.835Z,23.88
2022-12-13T20:04:00.472Z,21.05
2022-12-13T20:06:30.367Z,21.70
2022-12-13T20:08:58.351Z,21.02
2022-12-13T20:11:26.532Z,20.75
2022-12-13T20:13:55.646Z,20.90
2022-12-13T20:16:51.598Z,19.40
2022-12-13T20:19:23.081Z,20.95
2022-12-13T20:21:54.971Z,19.75
2022-12-13T20:24:24.264Z,19.55
2022-12-13T20:26:51.845Z,20.23
2022-12-13T20:29:21.367Z,19.60
2022-12-13T20:31:50.214Z,19.17
2022-12-13T20:34:22.971Z,19.08
2022-12-13T20:36:50.254Z,18.35
2022-12-13T20:39:17.243Z,17.45
2022-12-13T20:41:49.198Z,17.98
2022-12-13T20:44:16.168Z,18.58
2022-12-13T20:46:44.247Z,16.70
2022-12-13T20:49:13.784Z,16.95
2022-12-13T20:51:42.236Z,18.00
2022-12-13T20:54:10.667Z,18.30
2022-12-13T20:56:39.604Z,18.40
2022-12-13T20:59:09.008Z,18.48
2022-12-13T21:01:40.503Z,16.35
2022-12-13T21:04:09.763Z,13.35
2022-12-13T21:06:40.619Z,17.42
2022-12-13T21:09:09.616Z,18.10
2022-12-13T21:11:42.868Z,19.17
2022-12-13T21:14:22.805Z,24.05
2022-12-13T21:16:55.285Z,18.30
2022-12-13T21:19:25.638Z,19.73
2022-12-13T21:21:53.590Z,18.75
2022-12-13T21:24:22.364Z,19.98
2022-12-13T21:26:51.144Z,17.40
2022-12-13T21:29:19.282Z,17.83
2022-12-13T21:31:52.472Z,17.17
2022-12-13T21:34:22.315Z,16.17
2022-12-13T21:36:52.289Z,17.08
2022-12-13T21:39:22.900Z,17.13
2022-12-13T21:41:50.472Z,17.17
2022-12-13T21:44:18.142Z,16.60
2022-12-13T21:49:33.330Z,16.00
2022-12-13T21:52:00.235Z,15.82
2022-12-13T21:54:27.364Z,15.77
2022-12-13T21:57:14.655Z,17.23
2022-12-13T21:59:43.709Z,16.73
2022-12-13T22:02:20.695Z,16.60
2022-12-13T22:04:53.166Z,17.73
2022-12-13T22:07:22.103Z,17.33
2022-12-13T22:09:49.679Z,16.27
2022-12-13T22:12:29.752Z,16.40
2022-12-13T22:14:57.656Z,16.60
2022-12-13T22:17:33.040Z,16.63
2022-12-13T22:20:07.067Z,16.42
2022-12-13T22:22:34.502Z,12.82
2022-12-13T22:25:01.484Z,16.33
2022-12-13T22:27:28.407Z,16.38
2022-12-13T22:29:58.490Z,16.35
2022-12-13T22:32:28.845Z,15.65
2022-12-13T22:34:59.258Z,16.95
2022-12-13T22:38:22.142Z,15.82
2022-12-13T22:40:51.001Z,14.82
2022-12-13T22:43:48.392Z,14.80
2022-12-13T22:46:18.088Z,16.42
2022-12-13T22:49:12.840Z,16.35
2022-12-13T22:51:43.493Z,17.45
2022-12-13T22:54:12.669Z,15.98
2022-12-13T22:56:39.573Z,16.38
2022-12-13T22:59:08.094Z,17.08
2022-12-13T23:01:38.129Z,16.75
2022-12-13T23:04:07.478Z,15.70
2022-12-13T23:06:37.712Z,17.85
2022-12-13T23:09:10.593Z,16.40
2022-12-13T23:11:57.869Z,16.90
2022-12-13T23:14:34.088Z,17.65
2022-12-13T23:17:01.808Z,15.68
2022-12-13T23:19:49.602Z,17.27
2022-12-13T23:22:22.591Z,17.05
2022-12-13T23:24:52.007Z,16.30
2022-12-13T23:27:22.218Z,17.13
2022-12-13T23:29:51.637Z,16.60
2022-12-13T23:32:19.537Z,17.23
2022-12-13T23:34:46.522Z,16.70
2022-12-13T23:37:17.551Z,18.60
2022-12-13T23:39:45.605Z,17.52
2022-12-13T23:42:14.836Z,17.48
2022-12-13T23:44:42.691Z,17.85
2022-12-13T23:47:09.560Z,16.67
2022-12-13T23:49:38.278Z,17.27
2022-12-13T23:52:05.277Z,17.20
2022-12-13T23:54:34.918Z,16.58
2022-12-13T23:57:02.037Z,16.10
2022-12-13T23:59:37.616Z,17.60
